Time;durP1;ratioP1;P1;durP2;ratioP2;P2;SDS_P1;SDS_P2;PMS_P1;PMS_P2;Temp;Humidity;BMP_temperature;BMP_pressure;BME280_temperature;BME280_humidity;BME280_pressure;Samples;Min_cycle;Max_cycle;Signal;HPM_P1;HPM_P2
2022/04/27 00:00:15;;;;;;;5.07;4.77;;;8.10;99.90;;;8.82;100.00;98181.34;5260961;28;20274;-60
2022/04/27 00:02:49;;;;;;;5.23;4.83;;;8.10;99.90;;;8.80;100.00;98178.69;5258229;28;20196;-60
2022/04/27 00:05:22;;;;;;;5.17;4.77;;;8.10;99.90;;;8.79;100.00;98182.00;5262748;28;20196;-60
2022/04/27 00:07:56;;;;;;;5.07;4.77;;;8.10;99.90;;;8.79;100.00;98172.69;5259705;28;20640;-60
2022/04/27 00:10:30;;;;;;;5.23;4.83;;;8.10;99.90;;;8.80;100.00;98176.13;5261295;28;20273;-60
2022/04/27 00:13:03;;;;;;;5.70;5.30;;;8.00;99.90;;;8.74;100.00;98178.25;5263924;28;20287;-60
2022/04/27 00:15:36;;;;;;;5.90;5.47;;;8.00;99.90;;;8.69;100.00;98169.41;5264148;28;20315;-60
2022/04/27 00:18:09;;;;;;;6.17;5.63;;;7.90;99.90;;;8.70;100.00;98176.25;5256771;28;20667;-60
2022/04/27 00:20:42;;;;;;;6.10;5.70;;;8.00;99.90;;;8.68;100.00;98177.84;5261853;28;20238;-60
2022/04/27 00:23:17;;;;;;;6.03;5.63;;;7.90;99.90;;;8.64;100.00;98179.28;5259772;28;20712;-60
2022/04/27 00:25:50;;;;;;;5.77;5.37;;;7.90;99.90;;;8.60;100.00;98178.97;5262950;28;20301;-60
2022/04/27 00:28:23;;;;;;;5.57;5.27;;;7.90;99.90;;;8.62;100.00;98179.97;5256348;28;20198;-60
2022/04/27 00:30:56;;;;;;;6.13;5.73;;;7.80;99.90;;;8.51;100.00;98175.00;5252351;28;20240;-60
2022/04/27 00:33:29;;;;;;;6.30;5.80;;;7.70;99.90;;;8.48;100.00;98179.00;5249208;28;20235;-60
2022/04/27 00:36:02;;;;;;;6.50;6.00;;;7.70;99.90;;;8.45;100.00;98182.22;5255674;28;20265;-60
2022/04/27 00:38:36;;;;;;;5.77;5.37;;;7.70;99.90;;;8.46;100.00;98175.44;5252380;28;20771;-60
2022/04/27 00:41:10;;;;;;;6.07;5.67;;;7.60;99.90;;;8.38;100.00;98185.06;5254912;28;20709;-60
2022/04/27 00:43:43;;;;;;;6.47;5.93;;;7.60;99.90;;;8.33;100.00;98178.78;5249483;28;20399;-61
2022/04/27 00:46:16;;;;;;;6.60;6.10;;;7.60;99.90;;;8.27;100.00;98183.41;5252378;28;20314;-59
2022/04/27 00:48:49;;;;;;;5.70;5.30;;;7.60;99.90;;;8.21;100.00;98177.88;5254204;28;20287;-60
2022/04/27 00:51:25;;;;;;;5.53;4.93;;;7.40;99.90;;;8.16;100.00;98181.78;5253959;28;20307;-61
2022/04/27 00:54:00;;;;;;;6.17;5.70;;;7.40;99.90;;;8.11;100.00;98195.06;5254401;28;20226;-60
2022/04/27 00:56:33;;;;;;;5.33;4.93;;;7.30;99.90;;;8.11;100.00;98201.81;5249030;28;20220;-60
2022/04/27 00:59:06;;;;;;;5.30;4.93;;;7.30;99.90;;;8.05;100.00;98204.78;5252068;28;20700;-60
2022/04/27 01:01:39;;;;;;;5.93;5.53;;;7.30;99.90;;;8.03;100.00;98206.34;5251317;28;20291;-59
2022/04/27 01:04:12;;;;;;;5.90;5.40;;;7.30;99.90;;;8.00;100.00;98208.66;5258778;28;20200;-61
2022/04/27 01:06:46;;;;;;;5.90;5.50;;;7.30;99.90;;;7.87;100.00;98211.09;5251280;28;20307;-60
2022/04/27 01:09:20;;;;;;;6.17;5.53;;;7.20;99.90;;;7.92;100.00;98216.50;5257124;28;20263;-60
2022/04/27 01:11:55;;;;;;;6.10;5.60;;;7.30;99.90;;;7.95;100.00;98220.16;5252489;28;20223;-61
2022/04/27 01:14:28;;;;;;;5.67;5.27;;;7.30;99.90;;;8.03;100.00;98215.63;5255249;28;20530;-61
2022/04/27 01:17:01;;;;;;;5.27;4.87;;;7.30;99.90;;;8.06;100.00;98216.75;5248258;28;20749;-60
2022/04/27 01:19:34;;;;;;;5.27;4.77;;;7.30;99.90;;;8.06;100.00;98221.84;5248667;28;20647;-59
2022/04/27 01:22:09;;;;;;;5.40;5.00;;;7.30;99.90;;;8.02;100.00;98224.94;5251969;28;20249;-60
2022/04/27 01:24:44;;;;;;;5.37;4.87;;;7.30;99.90;;;7.94;100.00;98218.41;5257335;28;20283;-60
2022/04/27 01:27:17;;;;;;;5.27;4.87;;;7.20;99.90;;;7.91;100.00;98220.72;5247730;28;20418;-60
2022/04/27 01:29:50;;;;;;;4.90;4.50;;;7.20;99.90;;;7.92;100.00;98225.03;5250888;28;20228;-60
2022/04/27 01:32:23;;;;;;;5.53;5.00;;;7.30;99.90;;;7.97;100.00;98213.53;5248002;28;20215;-60
2022/04/27 01:34:56;;;;;;;5.67;5.23;;;7.30;99.90;;;7.95;100.00;98215.06;5252732;28;20210;-60
2022/04/27 01:40:22;;;;;;;6.00;5.40;;;7.30;99.90;;;7.97;100.00;98216.06;5252921;28;20664;-60
2022/04/27 01:42:55;;;;;;;6.27;5.77;;;7.30;99.90;;;7.99;100.00;98206.91;5251423;28;20291;-60
2022/04/27 01:45:28;;;;;;;6.43;5.80;;;7.30;99.90;;;7.98;100.00;98209.31;5247670;28;20247;-60
2022/04/27 01:48:01;;;;;;;5.93;5.40;;;7.30;99.90;;;7.97;100.00;98218.63;5248521;28;20201;-60
2022/04/27 01:50:34;;;;;;;5.83;5.40;;;7.30;99.90;;;7.93;100.00;98216.66;5254546;28;20272;-60
2022/04/27 01:56:00;;;;;;;5.70;5.30;;;7.10;99.90;;;7.79;100.00;98227.47;5246852;28;20269;-59
2022/04/27 01:58:33;;;;;;;5.93;5.33;;;7.00;99.90;;;7.76;100.00;98227.25;5254846;28;20230;-59
2022/04/27 02:01:10;;;;;;;5.23;4.93;;;7.10;99.90;;;7.74;100.00;98222.03;5250864;28;20576;-60
2022/04/27 02:03:44;;;;;;;5.90;5.40;;;7.00;99.90;;;7.68;100.00;98230.09;5257823;28;20602;-60
2022/04/27 02:06:19;;;;;;;5.57;5.07;;;6.90;99.90;;;7.66;100.00;98225.66;5252609;28;20273;-60
2022/04/27 02:08:53;;;;;;;6.30;5.80;;;7.00;99.90;;;7.62;100.00;98224.56;5253140;28;20235;-60
2022/04/27 02:11:26;;;;;;;6.43;5.93;;;6.90;99.90;;;7.63;100.00;98228.88;5247496;28;20755;-60
2022/04/27 02:13:59;;;;;;;7.33;6.67;;;7.00;99.90;;;7.73;100.00;98232.13;5246731;28;20285;-59
2022/04/27 02:16:33;;;;;;;6.97;6.37;;;7.00;99.90;;;7.72;100.00;98227.78;5256413;28;20304;-60
2022/04/27 02:19:06;;;;;;;6.67;6.17;;;7.00;99.90;;;7.68;100.00;98229.22;5249105;28;20266;-59
2022/04/27 02:21:40;;;;;;;6.67;6.07;;;7.00;99.90;;;7.73;100.00;98237.19;5255489;28;20603;-60
2022/04/27 02:24:14;;;;;;;6.50;6.00;;;7.00;99.90;;;7.78;100.00;98230.78;5258414;28;20286;-59
2022/04/27 02:26:47;;;;;;;7.63;7.03;;;7.10;99.90;;;7.75;100.00;98236.50;5247456;28;20247;-60
2022/04/27 02:29:21;;;;;;;6.60;6.10;;;7.20;99.90;;;7.77;100.00;98229.88;5251999;28;20266;-60
2022/04/27 02:31:54;;;;;;;7.03;6.43;;;7.20;99.90;;;7.77;100.00;98234.97;5263822;28;20239;-60
2022/04/27 02:34:27;;;;;;;6.20;5.70;;;7.10;99.90;;;7.74;100.00;98231.31;5265043;28;20676;-60
2022/04/27 02:37:00;;;;;;;7.20;6.60;;;7.10;99.90;;;7.76;100.00;98232.34;5251381;28;20697;-60
2022/04/27 02:39:34;;;;;;;6.63;6.13;;;7.10;99.90;;;7.73;100.00;98227.03;5254518;28;20208;-60
2022/04/27 02:42:08;;;;;;;6.57;5.97;;;7.10;99.90;;;7.79;100.00;98235.97;5261749;28;20603;-60
2022/04/27 02:44:41;;;;;;;7.00;6.40;;;7.10;99.90;;;7.83;100.00;98232.88;5260944;28;20286;-60
2022/04/27 02:47:14;;;;;;;6.80;6.20;;;7.20;99.90;;;7.87;100.00;98239.09;5258212;28;20311;-60
2022/04/27 02:52:38;;;;;;;6.93;6.37;;;7.30;99.90;;;7.86;100.00;98234.75;5264021;28;20204;-60
2022/04/27 02:55:12;;;;;;;7.13;6.63;;;7.10;99.90;;;7.88;100.00;98238.31;5262237;28;20611;-60
2022/04/27 02:57:45;;;;;;;7.07;6.57;;;7.20;99.90;;;7.87;100.00;98244.19;5265787;28;20293;-60
2022/04/27 03:00:19;;;;;;;7.73;7.03;;;7.10;99.90;;;7.78;100.00;98246.91;5257581;28;20745;-64
2022/04/27 03:02:52;;;;;;;7.03;6.53;;;7.10;99.90;;;7.75;100.00;98250.91;5261299;28;20386;-60
2022/04/27 03:05:25;;;;;;;6.80;6.30;;;7.00;99.90;;;7.71;100.00;98254.88;5264743;28;20199;-59
2022/04/27 03:07:58;;;;;;;7.00;6.40;;;7.00;99.90;;;7.72;100.00;98256.66;5267367;28;20228;-60
2022/04/27 03:10:32;;;;;;;7.03;6.40;;;7.10;99.90;;;7.83;100.00;98260.00;5264566;28;20231;-59
2022/04/27 03:13:06;;;;;;;6.23;5.63;;;7.20;99.90;;;7.88;100.00;98262.09;5260350;28;20313;-59
2022/04/27 03:15:39;;;;;;;6.70;6.10;;;7.20;99.90;;;7.93;100.00;98257.38;5261878;28;20719;-59
2022/04/27 03:18:19;;;;;;;7.43;6.73;;;7.30;99.90;;;7.96;100.00;98262.69;5255111;28;20648;-59
2022/04/27 03:20:53;;;;;;;7.60;6.97;;;7.30;99.90;;;8.04;100.00;98266.69;5258702;28;20239;-60
2022/04/27 03:23:26;;;;;;;7.50;6.90;;;7.40;99.90;;;8.06;100.00;98259.13;5261048;28;20296;-60
2022/04/27 03:26:00;;;;;;;7.10;6.60;;;7.40;99.90;;;8.12;100.00;98262.13;5261540;28;20317;-60
2022/04/27 03:28:33;;;;;;;7.87;7.23;;;7.40;99.90;;;8.17;100.00;98267.56;5265836;28;20751;-60
2022/04/27 03:31:06;;;;;;;7.57;6.87;;;7.50;99.90;;;8.18;100.00;98265.09;5261056;28;20200;-59
2022/04/27 03:33:40;;;;;;;7.60;6.93;;;7.50;99.90;;;8.20;100.00;98272.88;5263205;28;20199;-60
2022/04/27 03:36:13;;;;;;;7.80;7.10;;;7.50;99.90;;;8.20;100.00;98268.66;5263560;28;20656;-60
2022/04/27 03:38:48;;;;;;;7.53;6.80;;;7.50;99.90;;;8.16;100.00;98266.69;5255813;28;20287;-60
2022/04/27 03:41:22;;;;;;;7.70;7.00;;;7.50;99.90;;;8.15;100.00;98274.19;5262223;28;20795;-60
2022/04/27 03:43:56;;;;;;;7.47;6.87;;;7.50;99.90;;;8.23;100.00;98262.91;5263777;28;20628;-60
2022/04/27 03:46:29;;;;;;;7.03;6.43;;;7.50;99.90;;;8.21;100.00;98274.63;5253620;28;20247;-60
2022/04/27 03:49:22;;;;;;;8.57;7.77;;;7.50;99.90;;;8.17;100.00;98271.00;5253941;28;20684;-60
2022/04/27 03:51:55;;;;;;;7.90;7.20;;;7.50;99.90;;;8.03;100.00;98267.44;5262121;28;20315;-59
2022/04/27 03:54:28;;;;;;;7.20;6.60;;;7.40;99.90;;;8.10;100.00;98269.66;5268878;28;20191;-60
2022/04/27 03:57:03;;;;;;;7.27;6.67;;;7.50;99.90;;;8.15;100.00;98269.97;5257550;28;20307;-60
2022/04/27 03:59:36;;;;;;;7.40;6.80;;;7.50;99.90;;;8.16;100.00;98274.31;5259014;28;20227;-59
2022/04/27 04:02:09;;;;;;;8.27;7.57;;;7.50;99.90;;;8.17;100.00;98278.63;5256499;28;20220;-60
2022/04/27 04:04:42;;;;;;;8.27;7.47;;;7.50;99.90;;;8.22;100.00;98281.53;5260222;28;20614;-59
2022/04/27 04:07:15;;;;;;;8.23;7.63;;;7.60;99.90;;;8.17;100.00;98280.28;5259858;28;20250;-60
2022/04/27 04:09:48;;;;;;;8.80;8.10;;;7.50;99.90;;;8.22;100.00;98273.88;5260413;28;20258;-60
2022/04/27 04:12:23;;;;;;;7.97;7.27;;;7.50;99.90;;;8.26;100.00;98279.28;5264533;28;20239;-59
2022/04/27 04:14:56;;;;;;;8.47;7.77;;;7.60;99.90;;;8.26;100.00;98280.94;5256903;28;20301;-60
2022/04/27 04:17:29;;;;;;;7.40;6.80;;;7.60;99.90;;;8.27;100.00;98280.16;5255952;28;20319;-59
2022/04/27 04:20:02;;;;;;;8.93;8.10;;;7.60;99.90;;;8.31;100.00;98290.69;5260071;28;20296;-60
2022/04/27 04:22:35;;;;;;;8.97;8.07;;;7.60;99.90;;;8.32;100.00;98295.00;5258065;28;20696;-61
2022/04/27 04:30:52;;;;;;;9.33;8.53;;;7.70;99.90;;;8.38;100.00;98312.41;5257136;28;20203;-60
2022/04/27 04:33:25;;;;;;;8.60;7.90;;;7.70;99.90;;;8.39;100.00;98316.78;5255610;28;20216;-60
2022/04/27 04:35:59;;;;;;;8.77;7.97;;;7.70;99.90;;;8.44;100.00;98319.63;5265665;28;20323;-61
2022/04/27 04:38:32;;;;;;;7.77;7.17;;;7.70;99.90;;;8.44;100.00;98315.44;5257207;28;20196;-61
2022/04/27 04:41:05;;;;;;;8.93;8.13;;;7.80;99.90;;;8.44;100.00;98319.63;5259913;28;20236;-61
2022/04/27 04:43:39;;;;;;;10.97;9.10;;;7.70;99.90;;;8.40;100.00;98323.63;5254850;28;20603;-62
2022/04/27 04:46:12;;;;;;;8.63;7.83;;;7.70;99.90;;;8.39;100.00;98320.97;5257028;28;20220;-61
2022/04/27 04:48:45;;;;;;;10.13;9.13;;;7.70;99.90;;;8.35;100.00;98324.91;5253809;28;20291;-62
2022/04/27 04:51:18;;;;;;;9.27;8.47;;;7.60;99.90;;;8.33;100.00;98329.03;5258376;28;20327;-61
2022/04/27 04:54:07;;;;;;;11.73;10.60;;;7.70;99.90;;;8.32;100.00;98329.78;5260305;28;20571;-61
2022/04/27 04:56:40;;;;;;;10.27;9.27;;;7.70;99.90;;;8.28;100.00;98327.78;5254337;28;20251;-61
2022/04/27 04:59:14;;;;;;;10.17;9.27;;;7.60;99.90;;;8.33;100.00;98326.47;5257978;28;20230;-60
2022/04/27 05:01:47;;;;;;;12.03;10.93;;;7.70;99.90;;;8.40;100.00;98332.94;5260181;28;20633;-61
2022/04/27 05:04:22;;;;;;;12.20;11.00;;;7.80;99.90;;;8.44;100.00;98332.38;5265968;28;20683;-60
2022/04/27 05:06:55;;;;;;;11.13;10.13;;;7.80;99.90;;;8.54;100.00;98338.25;5267724;28;20251;-61
2022/04/27 05:09:28;;;;;;;11.83;10.73;;;7.90;99.90;;;8.63;100.00;98342.25;5260682;28;20241;-61
2022/04/27 05:12:01;;;;;;;12.23;11.10;;;8.00;99.90;;;8.75;100.00;98340.56;5258672;28;20579;-61
2022/04/27 05:14:36;;;;;;;13.33;12.10;;;8.10;99.90;;;8.80;100.00;98344.34;5265954;28;20283;-61
2022/04/27 05:17:09;;;;;;;13.53;12.20;;;8.20;99.90;;;8.88;100.00;98352.53;5267821;28;20215;-61
2022/04/27 05:19:42;;;;;;;14.67;12.93;;;8.20;99.90;;;8.92;100.00;98359.63;5251382;28;20242;-60
2022/04/27 05:22:15;;;;;;;15.20;13.60;;;8.30;99.90;;;8.94;100.00;98355.53;5250962;28;21744;-61
2022/04/27 05:24:48;;;;;;;14.40;12.97;;;8.30;99.90;;;8.94;100.00;98360.63;5262683;28;20304;-61
2022/04/27 05:27:24;;;;;;;14.20;12.80;;;8.20;99.90;;;8.91;100.00;98365.50;5255485;28;20310;-61
2022/04/27 05:32:49;;;;;;;11.57;10.37;;;8.20;99.90;;;8.89;100.00;98370.47;5264132;28;20709;-60
2022/04/27 05:39:29;;;;;;;12.10;10.80;;;8.30;99.90;;;8.98;100.00;98365.16;5256043;28;20202;-61
2022/04/27 05:42:02;;;;;;;11.60;10.40;;;8.30;99.90;;;9.01;100.00;98366.28;5260311;28;20250;-58
2022/04/27 05:44:35;;;;;;;13.35;12.07;;;8.40;99.90;;;9.08;100.00;98377.78;5265384;28;20654;-61
2022/04/27 05:47:11;;;;;;;13.80;12.40;;;8.40;99.90;;;9.15;100.00;98371.44;5261782;28;20243;-61
2022/04/27 05:49:44;;;;;;;12.23;11.03;;;8.50;99.90;;;9.21;100.00;98369.31;5267483;28;20246;-61
2022/04/27 05:52:18;;;;;;;13.60;12.25;;;8.50;99.90;;;9.20;100.00;98371.00;5259120;28;20715;-61
2022/04/27 05:54:52;;;;;;;13.90;12.47;;;8.40;99.90;;;9.17;100.00;98380.09;5256678;28;20219;-61
2022/04/27 05:57:25;;;;;;;14.40;13.00;;;8.50;99.90;;;9.20;100.00;98372.66;5253037;28;20763;-61
2022/04/27 05:59:58;;;;;;;14.75;13.25;;;8.50;99.90;;;9.19;100.00;98391.31;5262639;28;20602;-61
2022/04/27 06:02:33;;;;;;;14.30;12.77;;;8.50;99.90;;;9.20;100.00;98388.84;5266092;28;20579;-61
2022/04/27 06:05:08;;;;;;;15.10;13.65;;;8.50;99.90;;;9.22;100.00;98388.97;5266275;28;20252;-61
2022/04/27 06:07:41;;;;;;;15.48;13.88;;;8.50;99.90;;;9.20;100.00;98393.06;5259046;28;20275;-59
2022/04/27 06:10:14;;;;;;;15.60;14.00;;;8.50;99.90;;;9.22;100.00;98394.06;5258762;28;20689;-61
2022/04/27 06:12:49;;;;;;;15.02;13.52;;;8.50;99.90;;;9.18;100.00;98398.03;5261498;28;20323;-60
2022/04/27 06:15:22;;;;;;;14.80;13.27;;;8.50;99.90;;;9.21;100.00;98402.47;5255856;28;20200;-60
2022/04/27 06:17:57;;;;;;;16.08;14.38;;;8.50;99.90;;;9.20;100.00;98406.69;5261983;28;20279;-59
2022/04/27 06:20:30;;;;;;;15.57;13.98;;;8.50;99.90;;;9.26;100.00;98406.25;5264054;28;20339;-61
2022/04/27 06:23:03;;;;;;;17.77;15.87;;;8.60;99.90;;;9.28;100.00;98414.91;5260031;28;20226;-61
2022/04/27 06:25:39;;;;;;;17.42;15.63;;;8.60;99.90;;;9.33;100.00;98425.41;5254205;28;20714;-61
2022/04/27 06:28:12;;;;;;;17.33;15.50;;;8.60;99.90;;;9.37;100.00;98420.66;5265889;28;20192;-61
2022/04/27 06:30:46;;;;;;;18.80;16.23;;;8.60;99.90;;;9.39;100.00;98425.88;5270315;28;20723;-60
2022/04/27 06:33:21;;;;;;;20.63;17.73;;;8.70;99.90;;;9.42;100.00;98423.53;5264135;28;20323;-60
2022/04/27 06:35:54;;;;;;;20.52;18.33;;;8.70;99.90;;;9.41;100.00;98435.41;5256388;28;20378;-61
2022/04/27 06:38:27;;;;;;;20.55;18.35;;;8.70;99.90;;;9.44;100.00;98433.06;5259245;28;20249;-60
2022/04/27 06:41:10;;;;;;;21.52;19.23;;;8.70;99.90;;;9.43;99.69;98438.94;5267327;28;20283;-61
2022/04/27 06:43:43;;;;;;;24.40;20.35;;;8.70;99.90;;;9.31;99.49;98437.19;5269920;28;20260;-61
2022/04/27 06:46:16;;;;;;;22.33;19.85;;;8.70;99.90;;;9.34;100.00;98438.28;5252174;28;20323;-61
2022/04/27 06:48:50;;;;;;;20.90;18.63;;;8.70;99.90;;;9.44;100.00;98442.38;5269744;28;20204;-61
2022/04/27 06:51:23;;;;;;;24.17;20.75;;;8.70;99.90;;;9.56;99.97;98453.47;5257609;28;20196;-60
2022/04/27 06:53:56;;;;;;;23.48;20.10;;;8.80;99.90;;;9.60;98.57;98454.56;5257558;28;20274;-60
2022/04/27 06:56:29;;;;;;;23.23;20.75;;;8.80;99.90;;;9.63;99.26;98460.75;5259635;28;20243;-61
2022/04/27 06:59:03;;;;;;;21.48;19.05;;;8.90;99.90;;;9.68;99.04;98458.53;5260285;28;20700;-61
2022/04/27 07:01:36;;;;;;;24.00;21.40;;;8.90;99.90;;;9.78;98.79;98465.16;5268842;28;20242;-61
2022/04/27 07:04:11;;;;;;;23.02;20.23;;;9.00;99.90;;;9.80;97.38;98459.38;5266766;28;20672;-61
2022/04/27 07:06:45;;;;;;;21.50;19.20;;;9.10;99.90;;;9.84;97.78;98461.38;5267701;28;20232;-61
2022/04/27 07:09:18;;;;;;;22.60;20.17;;;9.10;99.90;;;9.93;96.13;98456.91;5257989;28;20282;-61
2022/04/27 07:11:52;;;;;;;22.40;20.05;;;9.10;99.90;;;9.98;95.72;98464.88;5261729;28;20204;-61
2022/04/27 07:14:25;;;;;;;22.92;20.40;;;9.20;99.90;;;10.03;96.06;98468.63;5267379;28;20215;-60
2022/04/27 07:16:59;;;;;;;23.88;20.35;;;9.20;99.90;;;10.05;95.79;98469.63;5264718;28;20779;-61
2022/04/27 07:19:33;;;;;;;23.02;20.58;;;9.30;99.90;;;10.06;95.19;98473.06;5262354;28;20292;-61
2022/04/27 07:22:07;;;;;;;21.15;18.60;;;9.30;99.90;;;10.11;95.60;98467.50;5252309;28;20196;-61
2022/04/27 07:24:40;;;;;;;23.48;20.65;;;9.30;99.90;;;10.16;94.77;98472.94;5267095;28;20204;-60
2022/04/27 07:27:13;;;;;;;23.73;19.90;;;9.40;99.90;;;10.18;93.54;98478.13;5260453;28;20240;-61
2022/04/27 07:29:47;;;;;;;22.25;19.30;;;9.40;99.90;;;10.29;95.37;98474.69;5263455;28;20292;-60
2022/04/27 07:32:20;;;;;;;23.60;21.02;;;9.50;99.90;;;10.29;93.96;98483.22;5257469;28;20651;-61
2022/04/27 07:34:54;;;;;;;20.33;18.15;;;9.60;99.90;;;10.41;94.47;98479.72;5261988;28;20221;-60
2022/04/27 07:37:27;;;;;;;22.35;20.00;;;9.60;99.90;;;10.55;93.20;98487.53;5265657;28;20310;-60
2022/04/27 07:40:01;;;;;;;20.48;18.27;;;9.70;99.90;;;10.55;91.25;98486.66;5258830;28;20230;-61
2022/04/27 07:42:34;;;;;;;21.83;19.33;;;9.70;99.90;;;10.63;91.67;98485.50;5267982;28;20185;-60
2022/04/27 07:45:08;;;;;;;21.30;19.10;;;9.80;99.90;;;10.68;90.87;98478.16;5258300;28;20703;-61
2022/04/27 07:47:43;;;;;;;20.13;18.02;;;9.80;99.90;;;10.69;90.33;98493.56;5263146;28;20716;-61
2022/04/27 07:50:19;;;;;;;20.13;17.13;;;9.80;99.90;;;10.51;89.22;98494.91;5268982;28;20256;-61
2022/04/27 07:52:52;;;;;;;19.23;17.23;;;9.70;99.90;;;10.49;90.27;98502.47;5263165;28;20226;-61
2022/04/27 07:55:26;;;;;;;19.50;17.52;;;9.80;99.90;;;10.52;91.73;98497.56;5264930;28;20655;-61
2022/04/27 07:57:59;;;;;;;17.77;15.88;;;9.70;99.90;;;10.49;88.80;98501.59;5264064;28;20594;-61
2022/04/27 08:00:32;;;;;;;17.23;15.43;;;9.60;99.90;;;10.44;89.93;98498.69;5266818;28;20282;-60
2022/04/27 08:03:05;;;;;;;16.77;14.98;;;9.60;99.90;;;10.36;90.37;98505.88;5260374;28;20235;-60
2022/04/27 08:05:40;;;;;;;16.48;14.77;;;9.70;99.90;;;10.58;90.88;98503.06;5257348;28;20220;-60
2022/04/27 08:08:13;;;;;;;16.55;14.90;;;9.80;99.90;;;10.78;91.45;98516.31;5265324;28;20637;-60
2022/04/27 08:10:51;;;;;;;15.95;14.35;;;10.00;99.90;;;11.00;87.18;98510.97;5265986;28;20234;-60
2022/04/27 08:13:24;;;;;;;16.27;14.57;;;10.10;99.90;;;10.98;87.43;98517.63;5267442;28;20277;-60
2022/04/27 08:15:57;;;;;;;14.38;12.98;;;10.10;99.90;;;11.04;87.73;98510.34;5253331;28;20316;-61
2022/04/27 08:18:34;;;;;;;15.63;14.05;;;10.20;99.90;;;11.14;85.71;98506.75;5259053;28;20231;-61
2022/04/27 08:21:15;;;;;;;16.15;14.57;;;10.20;99.90;;;11.24;87.03;98509.09;5257654;28;20208;-60
2022/04/27 08:23:50;;;;;;;15.88;14.32;;;10.40;99.90;;;11.35;86.55;98518.38;5267629;28;20289;-60
2022/04/27 08:26:23;;;;;;;15.02;13.43;;;10.60;99.90;;;11.35;84.16;98517.47;5267562;28;20223;-61
2022/04/27 08:28:56;;;;;;;14.40;13.00;;;10.50;99.90;;;11.46;84.43;98526.75;5261432;28;20257;-61
2022/04/27 08:31:29;;;;;;;13.35;12.05;;;10.50;99.90;;;11.37;84.33;98524.47;5252745;28;20653;-61
2022/04/27 08:34:02;;;;;;;13.63;12.43;;;10.50;99.90;;;11.48;84.62;98530.28;5271300;28;20621;-61
2022/04/27 08:36:37;;;;;;;13.85;12.48;;;10.60;99.90;;;11.35;84.14;98538.84;5265679;28;20296;-61
2022/04/27 08:39:10;;;;;;;12.85;11.55;;;10.60;99.90;;;11.45;83.86;98535.22;5266947;28;20272;-61
2022/04/27 08:41:43;;;;;;;13.05;11.82;;;10.50;99.90;;;11.49;83.49;98538.06;5264491;28;20287;-61
2022/04/27 08:44:17;;;;;;;13.02;11.82;;;10.60;99.90;;;11.52;82.19;98537.38;5259091;28;20712;-61
2022/04/27 08:46:50;;;;;;;13.10;11.80;;;10.60;99.90;;;11.51;83.48;98543.28;5262498;28;20247;-60
2022/04/27 08:49:23;;;;;;;13.48;12.18;;;10.60;99.90;;;11.56;83.74;98538.44;5263675;28;20303;-60
2022/04/27 08:52:00;;;;;;;13.43;12.13;;;10.70;99.90;;;11.58;83.46;98542.88;5266419;28;20310;-60
2022/04/27 08:54:34;;;;;;;12.00;10.90;;;10.70;99.90;;;11.62;83.15;98550.00;5267212;28;20248;-61
2022/04/27 08:57:07;;;;;;;12.52;11.40;;;10.70;99.90;;;11.65;82.65;98550.19;5261213;28;20255;-62
2022/04/27 08:59:40;;;;;;;12.35;11.20;;;10.70;99.90;;;11.67;83.02;98552.81;5255288;28;20282;-60
2022/04/27 09:02:27;;;;;;;12.50;11.40;;;10.70;99.90;;;11.65;83.74;98547.63;5258282;28;20205;-61
2022/04/27 09:05:12;;;;;;;12.98;11.77;;;10.80;99.90;;;11.62;83.53;98547.44;5264356;28;20196;-60
2022/04/27 09:07:50;;;;;;;12.55;11.35;;;10.80;99.90;;;11.66;83.63;98551.06;5262472;28;20227;-60
2022/04/27 09:10:25;;;;;;;12.15;11.05;;;10.90;99.90;;;11.84;82.80;98552.22;5266273;28;20294;-61
2022/04/27 09:12:58;;;;;;;12.30;11.27;;;11.00;99.90;;;11.83;81.94;98554.69;5261442;28;20751;-59
2022/04/27 09:15:31;;;;;;;12.20;11.10;;;11.00;99.90;;;11.93;82.22;98557.97;5257811;28;20699;-60
2022/04/27 09:21:03;;;;;;;9.57;8.77;;;11.10;99.90;;;12.06;79.25;98567.31;5261876;28;20257;-60
2022/04/27 09:23:39;;;;;;;8.48;7.78;;;11.20;99.90;;;11.95;78.80;98556.38;5253837;28;20196;-60
2022/04/27 09:26:19;;;;;;;8.80;7.93;;;11.10;99.90;;;12.10;78.09;98558.13;5266744;28;20636;-60
2022/04/27 09:28:54;;;;;;;8.65;7.85;;;11.10;99.90;;;12.21;78.55;98551.97;5263261;28;20187;-60
2022/04/27 09:31:29;;;;;;;8.98;8.18;;;11.20;99.90;;;12.26;78.25;98547.16;5260442;28;20199;-60
2022/04/27 09:34:27;;;;;;;8.20;7.50;;;11.30;99.90;;;12.41;77.84;98550.66;5264531;28;20199;-60
2022/04/27 09:37:03;;;;;;;7.80;7.20;;;11.40;99.90;;;12.36;78.69;98555.50;5264073;28;20254;-60
2022/04/27 09:39:37;;;;;;;7.43;6.82;;;11.50;99.90;;;12.48;77.77;98557.06;5266607;28;20199;-60
2022/04/27 09:42:12;;;;;;;7.82;7.03;;;11.60;99.90;;;12.48;78.60;98560.50;5256569;28;20668;-58
2022/04/27 09:44:45;;;;;;;6.50;5.97;;;11.60;99.90;;;12.48;77.05;98555.38;5254848;28;20327;-60
2022/04/27 09:47:23;;;;;;;6.50;6.00;;;11.70;99.90;;;12.54;77.37;98555.72;5255236;28;20223;-60
2022/04/27 09:49:56;;;;;;;7.38;6.78;;;11.60;99.90;;;12.52;77.27;98557.31;5266535;28;20622;-60
2022/04/27 09:52:30;;;;;;;6.65;6.15;;;11.70;99.90;;;12.66;76.89;98554.69;5260634;28;20716;-60
2022/04/27 09:55:07;;;;;;;6.50;6.00;;;11.80;99.90;;;12.75;76.60;98547.56;5264659;28;20255;-60
2022/04/27 09:57:42;;;;;;;6.65;6.10;;;11.90;99.90;;;12.86;75.32;98551.66;5258114;28;20291;-60
2022/04/27 10:00:16;;;;;;;7.05;6.45;;;11.90;99.90;;;12.83;76.02;98548.91;5257822;28;20626;-59
2022/04/27 10:02:50;;;;;;;6.75;6.20;;;12.00;99.90;;;12.87;75.93;98550.84;5267972;28;20312;-60
2022/04/27 10:05:23;;;;;;;6.03;5.53;;;12.00;99.90;;;13.05;74.66;98554.50;5269002;28;20199;-59
2022/04/27 10:07:57;;;;;;;6.22;5.72;;;12.10;99.90;;;13.52;68.99;98553.81;5256200;28;20280;-60
2022/04/27 10:10:31;;;;;;;6.60;6.05;;;12.40;99.90;;;13.35;71.01;98551.97;5258463;28;20471;-60
2022/04/27 10:13:06;;;;;;;6.07;5.68;;;12.60;99.90;;;13.21;70.61;98556.25;5258532;28;20225;-60
2022/04/27 10:15:43;;;;;;;5.93;5.43;;;12.40;99.90;;;13.32;71.69;98554.34;5260396;28;20302;-60
2022/04/27 10:18:17;;;;;;;6.97;6.38;;;12.50;99.90;;;13.30;71.43;98555.94;5262611;28;20231;-59
2022/04/27 10:20:51;;;;;;;6.40;5.90;;;12.50;99.90;;;13.51;70.10;98557.19;5267992;28;20344;-60
2022/04/27 10:23:28;;;;;;;5.95;5.45;;;12.60;99.90;;;13.31;72.33;98555.16;5262276;28;20294;-59
2022/04/27 10:26:16;;;;;;;6.10;5.70;;;12.40;99.90;;;13.26;72.14;98561.72;5264383;28;20216;-59
2022/04/27 10:28:51;;;;;;;6.78;6.28;;;12.40;99.90;;;13.13;71.06;98561.75;5258333;28;20242;-59
2022/04/27 10:32:00;;;;;;;6.50;6.00;;;12.30;99.90;;;13.31;70.85;98560.28;5264866;28;20249;-59
2022/04/27 10:34:34;;;;;;;6.88;6.38;;;12.30;99.90;;;13.35;68.84;98566.47;5267436;28;20303;-59
2022/04/27 10:37:07;;;;;;;7.25;6.65;;;12.40;99.90;;;12.96;70.84;98561.66;5256542;28;20311;-59
2022/04/27 10:39:43;;;;;;;7.35;6.85;;;12.20;99.90;;;13.07;71.48;98560.59;5260944;28;20505;-59
2022/04/27 10:42:34;;;;;;;7.82;7.22;;;12.40;99.90;;;13.14;71.80;98558.41;5265069;28;20199;-59
2022/04/27 10:45:09;;;;;;;7.40;6.72;;;12.50;99.90;;;13.33;70.75;98560.38;5269243;28;20570;-58
2022/04/27 10:47:43;;;;;;;7.38;6.88;;;12.60;99.90;;;13.39;70.53;98561.63;5266880;28;20435;-53
2022/04/27 10:50:31;;;;;;;7.60;7.03;;;12.70;99.90;;;13.58;70.07;98560.97;5267233;28;20303;-57
2022/04/27 10:53:20;;;;;;;7.95;7.35;;;12.80;99.90;;;13.77;68.68;98568.03;5265776;28;20223;-55
2022/04/27 10:56:23;;;;;;;7.68;7.07;;;13.00;99.90;;;13.97;68.11;98567.44;5263480;28;20688;-57
2022/04/27 10:58:57;;;;;;;7.30;6.78;;;13.10;99.90;;;13.84;66.90;98564.13;5261363;28;20235;-57
2022/04/27 11:01:32;;;;;;;7.60;7.00;;;13.00;99.90;;;14.07;68.29;98547.38;5266681;28;20205;-59
2022/04/27 11:04:11;;;;;;;8.07;7.47;;;13.10;99.90;;;14.14;67.22;98545.25;5260691;28;20641;-55
2022/04/27 11:07:21;;;;;;;8.43;7.82;;;13.30;99.90;;;14.30;66.77;98549.50;5262598;28;20806;-58
2022/04/27 11:10:16;;;;;;;8.55;7.85;;;13.60;99.90;;;14.35;64.22;98553.22;5244564;28;20327;-59
2022/04/27 11:12:51;;;;;;;7.68;7.07;;;13.80;99.90;;;14.29;66.03;98554.59;5263155;28;20565;-52
2022/04/27 11:15:27;;;;;;;9.40;8.50;;;13.60;99.90;;;14.50;64.24;98558.28;5263393;28;20258;-55